x

8670870 - Fort Pulaski, Ga (fpkg1) Weather Station

4:54pm - Fri 31st Jul 2015 All times are EDT. -4 hours from GMT.

  • Wind
    2mph, 8mph gusts
  • Sea Temp 87°f
  • Air Temp 83°f
  • Sea Pressure 1013.3mb
  • 8670870 - Fort Pulaski, Ga
  • 8670870 - Fort Pulaski, Ga

More Historic Weather Station data

Upgrade to MSW Pro to gain access to the past 30 days of data for over 8000 Wavebouys and Weather Stations around the globe.

Join Pro

Comparision Forecast

View Surf forecast
   
Fri 07/31 4:54pm 2 8 mph 1013.3mb 87f 83f
4:48pm 3 6 mph 1013.3mb 87f 83f
4:42pm 6 9 mph 1013.4mb 87f 83f
4:36pm 6 9 mph 1013.6mb 87f 83f
4:30pm 3 7 mph 1013.6mb 87f 83f
4:24pm 5 7 mph 1013.6mb 87f 83f
4:18pm 7 10 mph 1013.5mb 87f 83f
4:12pm 6 8 mph 1013.4mb 87f 83f
4:06pm 7 10 mph 1013.4mb 87f 83f
4:00pm 6 8 mph 1013.4mb 87f 83f
3:54pm 7 9 mph 1013.3mb 87f 83f
3:48pm 2 7 mph 1013.3mb 87f 83f
3:42pm 6 9 mph 1013.3mb 87f 82f
3:36pm 7 10 mph 1013.2mb 87f 82f
3:30pm 3 5 mph 1013.4mb 87f 82f
3:24pm 5 7 mph 1013.5mb 87f 82f
3:18pm 5 8 mph 1013.7mb 87f 82f
3:12pm 5 6 mph 1014.1mb 87f 82f
3:06pm 6 7 mph 1014mb 87f 82f
3:00pm 2 5 mph 1013.7mb 87f 82f
2:54pm 3 7 mph 1013.6mb 87f 82f
2:48pm 2 5 mph 1013.7mb 87f 82f
2:42pm 3 7 mph 1013.7mb 87f 82f
2:36pm 3 8 mph 1013.9mb 87f 82f
2:30pm 5 8 mph 1014.2mb 87f 82f
2:24pm 5 8 mph 1014.4mb 87f 82f
2:18pm 5 6 mph 1014.5mb 87f 82f
2:12pm 7 9 mph 1014.7mb 87f 82f
2:06pm 7 9 mph 1014.9mb 87f 82f
2:00pm 8 11 mph 1015.1mb 87f 82f
1:54pm 8 13 mph 1014.9mb 87f 82f
1:48pm 9 14 mph 1014.7mb 87f 82f
1:42pm 10 14 mph 1014.6mb 87f 82f
1:36pm 8 13 mph 1014.6mb 87f 82f
1:30pm 9 14 mph 1014.8mb 87f 82f
1:24pm 6 11 mph 1014.9mb 87f 82f
1:18pm 7 10 mph 1014.7mb 87f 83f
1:12pm 7 10 mph 1014.6mb 87f 82f
1:06pm 8 13 mph 1014.7mb 87f 82f
1:00pm 7 11 mph 1014.6mb 87f 82f
12:54pm 8 13 mph 1014.6mb 87f 82f
12:48pm 6 10 mph 1014.8mb 87f 82f
12:42pm 8 13 mph 1015mb 87f 81f
12:36pm 8 13 mph 1015mb 86f 81f
12:30pm 7 11 mph 1015mb 86f 81f
12:24pm 5 9 mph 1015.1mb 86f 80f
12:18pm 6 9 mph 1015.1mb 86f 80f
12:12pm 7 9 mph 1015.1mb 86f 80f
12:06pm 5 7 mph 1015.3mb 86f 80f
12:00pm 3 6 mph 1015.4mb 86f 80f
11:54am 5 6 mph 1015.3mb 86f 80f
11:48am 3 6 mph 1015.3mb 86f 81f
11:42am 5 6 mph 1015.2mb 86f 81f
11:36am 2 3 mph 1015.1mb 86f 81f
11:30am 2 5 mph 1015.2mb 86f 81f
11:24am 3 5 mph 1015.1mb 86f 81f
11:18am 3 6 mph 1015.1mb 86f 81f
11:12am 2 3 mph 1015.1mb 86f 81f
11:06am 2 3 mph 1015mb 86f 81f
11:00am 1 2 mph 1015.1mb 86f 81f
10:54am  -  1 mph 1015.1mb 86f 81f
10:48am 1
mph
1015.1mb 86f 81f
10:42am 2 3 mph 1015mb 86f 81f
10:36am 3 5 mph 1014.8mb 86f 81f
10:30am 5 6 mph 1014.6mb 86f 81f
10:24am 7 8 mph 1014.4mb 86f 81f
10:18am 5 7 mph 1014.3mb 86f 81f
10:12am 6 7 mph 1014.3mb 86f 81f
10:06am 5 6 mph 1014.4mb 86f 81f
10:00am 7 8 mph 1014.4mb 86f 81f
9:54am 7 8 mph 1014.3mb 86f 81f
9:48am 7 9 mph 1014.2mb 86f 81f
9:42am 7 9 mph 1014.2mb 86f 80f
9:36am 6 7 mph 1014.2mb 86f 80f
9:30am 5 7 mph 1014.1mb 86f 80f
9:18am 7 9 mph 1014.3mb 86f 80f
9:12am 6 8 mph 1014.5mb 86f 80f
9:06am 5 6 mph 1014.5mb 86f 80f
9:00am 5 7 mph 1014.5mb 86f 80f
8:54am 6 8 mph 1014.6mb 86f 80f
8:48am 5 6 mph 1014.4mb 86f 80f
8:42am 6 8 mph 1014.3mb 86f 80f
8:36am 5 7 mph 1014.2mb 86f 80f
8:30am 6 8 mph 1014.1mb 86f 80f
8:24am 3 5 mph 1014.1mb 86f 80f
8:18am 5 7 mph 1014mb 86f 80f
8:12am 6 7 mph 1014mb 86f 80f
8:06am 3 6 mph 1013.9mb 86f 80f
8:00am 2 5 mph 1013.9mb 86f 80f
7:54am 5
mph
1013.8mb 86f 80f
7:48am 6 9 mph 1013.8mb 86f 80f
7:42am 5 6 mph 1013.7mb 86f 80f
7:36am 6 8 mph 1013.7mb 86f 80f
7:30am 7 9 mph 1013.7mb 86f 80f
7:24am 7 8 mph 1013.6mb 87f 80f
7:18am 8 13 mph 1013.6mb 87f 80f
7:12am 7 10 mph 1013.6mb 87f 80f
7:06am 6 9 mph 1013.6mb 87f 80f
7:00am 6 8 mph 1013.6mb 87f 80f
6:54am 5 8 mph 1013.5mb 87f 80f
6:48am 7 9 mph 1013.4mb 87f 80f
6:42am 8 11 mph 1013.4mb 87f 80f
6:36am 7 9 mph 1013.4mb 87f 80f
6:30am 7 9 mph 1013.4mb 87f 80f
6:24am 6 10 mph 1013.3mb 87f 80f
6:18am 6 9 mph 1013.2mb 87f 80f
6:12am 3 6 mph 1013.1mb 87f 80f
6:06am 5 7 mph 1013.1mb 87f 80f
6:00am 5 7 mph 1013mb 87f 80f
5:54am 6 8 mph 1012.9mb 87f 80f
5:48am 6 7 mph 1012.9mb 87f 80f
5:42am 5 7 mph 1012.9mb 87f 80f
5:36am 5 7 mph 1012.9mb 87f 80f
5:30am 5 7 mph 1012.9mb 87f 80f
5:24am 3 5 mph 1012.9mb 87f 80f
5:18am 3 6 mph 1012.9mb 87f 80f
5:12am 5 7 mph 1012.8mb 87f 80f
5:06am 5 6 mph 1012.7mb 87f 80f
5:00am 5 7 mph 1012.7mb 87f 80f
4:54am 3 5 mph 1012.8mb 87f 80f
4:48am 3 5 mph 1012.8mb 87f 80f
4:42am 3 5 mph 1012.8mb 87f 80f
4:36am 1 3 mph 1012.9mb 87f 80f
4:30am 3 5 mph 1012.9mb 87f 80f
4:24am 3 6 mph 1012.8mb 87f 80f
4:18am 5 6 mph 1012.7mb 87f 80f
4:12am 5 8 mph 1012.7mb 87f 80f
4:06am 7 10 mph 1012.7mb 87f 80f
4:00am 7 8 mph 1012.7mb 87f 80f
3:54am 6 8 mph 1012.8mb 87f 80f
3:48am 6 7 mph 1012.8mb 87f 80f
3:42am 6 8 mph 1012.7mb 87f 80f
3:36am 5 6 mph 1012.7mb 87f 80f
3:30am 5 7 mph 1012.6mb 87f 80f
3:24am 5 8 mph 1012.7mb 87f 80f
3:18am 6 7 mph 1012.6mb 87f 80f
3:12am 6 7 mph 1012.6mb 87f 81f
3:06am 5 7 mph 1012.6mb 87f 81f
3:00am 3 6 mph 1012.7mb 87f 81f
2:54am 2 5 mph 1012.8mb 87f 80f
2:48am 1 2 mph 1013mb 87f 80f
2:42am  -  1 mph 1013mb 87f 80f
2:36am 2 5 mph 1013.1mb 87f 80f
2:30am 5 6 mph 1013.1mb 87f 80f
2:24am 5 6 mph 1013.2mb 87f 80f
2:18am 5 8 mph 1013.3mb 87f 79f
2:12am 5 8 mph 1013.5mb 87f 79f
2:06am 7 13 mph 1013.7mb 87f 79f
2:00am 7 9 mph 1013.9mb 87f 79f
1:54am 7 10 mph 1014.1mb 87f 79f
1:48am 6 10 mph 1014.1mb 87f 78f
1:42am 5 8 mph 1014mb 87f 78f
1:36am 7 11 mph 1013.9mb 87f 78f
1:30am 7 11 mph 1013.8mb 87f 79f
1:24am 7 10 mph 1013.9mb 87f 79f
1:18am 7 13 mph 1013.9mb 87f 79f
1:12am 7 10 mph 1013.8mb 87f 79f
1:06am 6 7 mph 1013.8mb 87f 79f
1:00am 3 7 mph 1014mb 87f 79f
12:54am 5 7 mph 1014.2mb 87f 79f
12:48am 6 8 mph 1014.4mb 87f 79f
12:42am 3 6 mph 1014.3mb 87f 80f
12:36am 6 9 mph 1014.2mb 87f 80f
12:30am 3 6 mph 1014.3mb 87f 80f
12:24am 6 8 mph 1014.5mb 87f 80f
12:18am 9 15 mph 1014.4mb 87f 80f
12:12am 3 5 mph 1014.4mb 87f 80f
12:06am 2 3 mph 1014.5mb 87f 83f
12:00am 5 7 mph 1014.4mb 87f 83f
Thu 07/30 11:54pm 7 9 mph 1014.3mb 87f 85f
11:48pm 9 10 mph 1014.2mb 87f 85f
11:42pm 8 9 mph 1014.1mb 87f 84f
11:36pm 10 13 mph 1014mb 87f 85f
11:30pm 8 11 mph 1013.9mb 87f 85f
11:24pm 6 9 mph 1013.7mb 87f 85f
11:18pm 8 11 mph 1013.8mb 87f 85f
11:12pm 8 11 mph 1013.9mb 87f 85f
11:06pm 7 11 mph 1013.8mb 87f 85f
11:00pm 8 13 mph 1013.9mb 87f 86f
10:54pm 8 11 mph 1013.9mb 87f 86f
10:48pm 8 13 mph 1013.9mb 87f 85f
10:42pm 9 14 mph 1013.9mb 87f 86f
10:36pm 8 13 mph 1014mb 87f 86f
10:30pm 7 10 mph 1013.9mb 87f 85f
10:24pm 7 11 mph 1013.8mb 87f 85f
10:18pm 8 16 mph 1013.8mb 87f 86f
10:12pm 7 11 mph 1013.7mb 87f 86f
10:06pm 7 13 mph 1013.6mb 87f 86f
10:00pm 7 10 mph 1013.7mb 87f 85f
9:54pm 7 14 mph 1013.6mb 87f 85f
9:48pm 8 13 mph 1013.6mb 87f 85f
9:42pm 8 13 mph 1013.4mb 87f 85f
9:36pm 8 15 mph 1013.4mb 87f 85f
9:30pm 6 10 mph 1013.2mb 87f 85f
9:24pm 5 8 mph 1013.2mb 87f 85f
9:18pm 9 14 mph 1013.2mb 87f 85f
9:12pm 9 14 mph 1013.1mb 87f 85f
9:06pm 6 10 mph 1012.9mb 87f 85f
9:00pm 6 10 mph 1013mb 87f 85f
8:54pm 10 15 mph 1013mb 87f 85f
8:48pm 9 13 mph 1013mb 87f 85f
8:42pm 9 14 mph 1012.9mb 87f 85f
8:36pm 8 13 mph 1013mb 87f 85f
8:30pm 8 13 mph 1013mb 87f 85f
8:24pm 6 9 mph 1013mb 87f 85f
8:18pm 8 13 mph 1012.9mb 87f 85f
8:12pm 10 16 mph 1012.9mb 87f 85f
8:06pm 6 9 mph 1012.9mb 87f 85f
8:00pm 8 11 mph 1012.8mb 87f 85f
7:54pm 10 16 mph 1012.8mb 87f 85f
7:48pm 8 15 mph 1012.8mb 87f 85f
7:42pm 8 14 mph 1012.8mb 87f 85f
7:36pm 8 13 mph 1012.8mb 87f 85f
7:30pm 11 16 mph 1012.7mb 87f 85f
7:24pm 7 13 mph 1012.6mb 87f 85f
7:18pm 7 10 mph 1012.5mb 87f 86f
7:12pm 6 10 mph 1012.5mb 87f 86f
7:06pm 8 10 mph 1012.5mb 87f 86f
7:00pm 5 7 mph 1012.5mb 87f 86f
6:54pm 6 9 mph 1012.4mb 87f 86f
6:48pm 6 10 mph 1012.3mb 87f 86f
6:42pm 6 10 mph 1012.2mb 87f 87f
6:36pm 6 10 mph 1012.2mb 87f 87f
6:30pm 6 9 mph 1012.1mb 87f 87f
6:24pm 6 9 mph 1012.1mb 87f 87f
6:18pm 5 9 mph 1012.2mb 87f 87f
6:12pm 7 10 mph 1012.2mb 87f 87f
6:06pm 6 9 mph 1012.2mb 87f 88f
6:00pm 3 7 mph 1012.3mb 87f 88f
5:54pm 7 10 mph 1012.2mb 87f 88f
5:48pm 6 10 mph 1012.2mb 87f 87f
5:42pm 6 9 mph 1012.4mb 87f 88f
5:36pm 7 11 mph 1012.3mb 87f 87f
5:30pm 7 10 mph 1012.3mb 87f 88f
5:24pm 5 10 mph 1012.3mb 87f 89f
5:18pm 7 11 mph 1012.4mb 87f 88f
5:12pm 7 11 mph 1012.4mb 87f 88f
5:06pm 6 8 mph 1012.5mb 87f 89f
5:00pm 6 11 mph 1012.5mb 87f 90f
4:54pm 6 8 mph 1012.5mb 87f 89f
4:48pm 6 9 mph 1012.4mb 87f 88f
4:42pm 6 9 mph 1012.4mb 87f 89f
4:36pm 6 10 mph 1012.6mb 87f 89f
4:30pm 6 9 mph 1012.7mb 87f 89f
4:24pm 6 10 mph 1012.8mb 87f 89f
4:18pm 6 8 mph 1012.8mb 87f 89f
4:12pm 3 6 mph 1012.8mb 87f 89f
4:06pm 7 9 mph 1012.9mb 87f 88f
4:00pm 7 10 mph 1013mb 87f 88f
3:54pm 6 8 mph 1013mb 87f 89f
3:48pm 8 11 mph - - -
3:42pm 7 10 mph 1013.3mb 87f 88f
3:36pm 7 11 mph 1013.4mb 87f 87f
3:30pm 9 14 mph 1013.5mb 87f 88f
3:24pm 7 9 mph 1013.6mb 87f 89f
3:18pm 8 14 mph 1013.6mb 87f 88f
3:12pm 8 11 mph 1013.7mb 87f 88f
3:06pm 7 10 mph 1013.8mb 87f 88f
3:00pm 6 9 mph 1013.9mb 87f 87f
2:54pm 6 9 mph 1014mb 87f 87f
2:48pm 6 10 mph 1014mb 87f 88f
2:42pm 9 11 mph 1014.2mb 87f 87f
2:36pm 7 13 mph 1014.3mb 87f 88f
2:30pm 6 10 mph 1014.4mb 87f 88f
2:24pm 5 9 mph 1014.5mb 87f 87f
2:18pm 7 11 mph 1014.6mb 87f 87f
2:12pm 7 10 mph 1014.7mb 87f 87f
2:06pm 5 8 mph 1014.8mb 87f 87f
2:00pm 7 10 mph 1014.8mb 87f 87f
1:54pm 6 9 mph 1014.8mb 87f 87f
1:48pm 9 11 mph 1014.9mb 87f 87f
1:42pm 8 11 mph 1015mb 87f 86f
1:36pm 8 13 mph 1015.1mb 87f 86f
1:30pm 3 7 mph 1015.1mb 87f 86f
1:24pm 5 7 mph 1015.1mb 87f 87f
1:18pm 6 9 mph 1015.2mb 87f 86f
1:12pm 6 9 mph 1015.2mb 87f 87f
1:06pm 6 9 mph 1015.3mb 87f 87f
1:00pm 3 7 mph 1015.4mb 87f 87f
12:54pm 6 8 mph 1015.4mb 87f 86f
12:48pm 5 8 mph 1015.5mb 87f 87f
12:42pm 7 10 mph 1015.6mb 87f 87f
12:36pm 5 7 mph 1015.6mb 87f 87f
12:30pm 2 6 mph 1015.7mb 87f 86f
12:24pm 6 7 mph 1015.7mb 87f 85f
12:18pm 6 7 mph 1015.7mb 87f 85f
12:12pm 6 7 mph 1015.8mb 86f 84f
12:06pm 6 8 mph 1015.8mb 86f 84f
12:00pm 7 9 mph 1015.8mb - -
11:54am 8 10 mph 1015.8mb 86f 84f
11:42am 7 8 mph 1015.9mb 86f 84f
11:30am 7 8 mph 1015.8mb 86f 83f
11:24am 6 8 mph 1015.8mb 86f 85f
11:18am 7 8 mph 1015.7mb 86f 85f
11:12am 6 7 mph 1015.6mb 86f 85f
11:06am 6 8 mph 1015.4mb 86f 84f
11:00am 6 8 mph 1015.4mb 86f 84f
10:54am 6 8 mph 1015.4mb 86f 84f
10:48am 8 9 mph 1015.4mb 86f 84f
10:42am 7 9 mph 1015.4mb 86f 84f
10:36am 7 10 mph 1015.3mb 86f 84f
10:30am 9 10 mph 1015.3mb 86f 84f
10:24am 8 10 mph 1015.2mb 86f 84f
10:18am 9 10 mph 1015.1mb 86f 83f
10:12am 8 10 mph 1015mb 86f 84f
10:06am 7 8 mph 1015mb 86f 84f
10:00am 7 9 mph - - -
9:54am 7 9 mph 1014.8mb 86f 83f
9:48am 7 10 mph 1014.8mb 86f 83f
9:42am 8 9 mph 1014.8mb 86f 83f
9:30am 8 10 mph 1014.7mb 86f 83f
9:18am 8 9 mph 1014.7mb 86f 83f
9:12am 8 10 mph 1014.7mb 86f 83f
9:06am 7 9 mph 1014.7mb 86f 82f
9:00am 7 9 mph 1014.7mb 86f 82f
8:54am 7 8 mph 1014.7mb 86f 82f
8:48am 7
mph
1014.7mb 86f 82f
8:42am  -  mph - - 82f
8:36am  -  mph - - 81f
8:30am  -  mph - - 81f
8:24am  -  mph - - 81f
8:18am  -  mph - - 81f
8:12am  -  mph - - 81f
8:06am  -  mph - - 81f
8:00am  -  mph - - 80f
7:54am  -  mph - - 80f
7:48am  -  mph - - 80f
7:30am  -  mph - - 80f
7:24am  -  mph - - 79f
7:18am  -  mph - - 79f
7:12am  -  mph - - 79f
7:06am  -  mph - - 79f
7:00am  -  mph - - 79f
6:54am  -  mph - - 78f
6:48am  -  mph - - 78f
6:42am  -  mph - - 78f
6:36am  -  mph - - 78f
6:30am  -  mph - - 78f
6:24am  -  mph - - 78f
6:18am  -  mph - - 78f
6:12am  -  mph - - 78f
6:06am  -  mph - - 78f
6:00am  -  mph - - 78f
5:54am  -  mph - - 78f
5:48am  -  mph 1013.8mb 86f 78f
5:42am  -  mph 1013.7mb 86f 78f
5:36am  -  mph 1013.7mb 86f 78f
5:30am  -  mph 1013.7mb 86f 78f
5:24am  -  mph 1013.6mb 86f 78f
5:18am  -  mph - - 79f
5:12am  -  mph - - 78f
5:06am  -  mph - - 79f
5:00am  -  mph - 86f 79f
4:54am  -  mph - 86f 79f
4:48am  -  mph - 86f 79f
4:42am  -  mph - 86f 79f
4:36am  -  mph - 86f 79f
4:30am  -  mph - - 79f
4:24am  -  mph - - 79f
4:18am  -  mph - - 79f
4:12am  -  mph - - 80f
4:06am  -  mph - - 80f
4:00am  -  mph 1014mb - 80f
3:54am  -  mph 1014mb - 80f
3:48am  -  mph - - 80f
3:42am  -  mph - - 80f
3:36am  -  mph - - 80f
3:30am  -  mph - 86f 80f
3:24am  -  mph - 86f 80f
3:18am  -  mph - 86f 80f
3:12am  -  mph - 86f 80f
3:06am  -  mph - 86f 81f
3:00am  -  mph - 86f 81f
2:54am  -  mph - 86f 81f
2:48am  -  mph - - 81f
2:42am  -  mph - - 81f
2:36am  -  mph - - 81f
2:30am  -  mph 1014.7mb 86f 81f
2:24am  -  mph 1014.7mb 86f 81f
2:18am  -  mph 1014.9mb 86f 81f
2:12am  -  mph 1014.8mb 86f 81f
2:06am  -  mph 1014.9mb 86f 81f
2:00am  -  mph 1015mb 87f 81f
1:54am  -  mph 1015.1mb 87f 81f
1:48am  -  mph 1015.3mb 87f 81f
1:18am  -  mph - - 81f
1:12am  -  mph - - 81f
1:06am  -  mph - - 81f
1:00am  -  mph - - 81f
12:54am  -  mph - - 81f
12:48am  -  mph - - 81f
12:42am  -  mph - - 82f
12:36am  -  mph - - 82f
12:30am  -  mph - - 82f
12:24am  -  mph - - 82f
12:18am  -  mph - - 82f
12:12am  -  mph - - 82f
12:06am  -  mph - - 82f
12:00am  -  mph - - 82f
Wed 07/29 11:54pm  -  mph - - 82f
11:48pm  -  mph - - 82f
11:42pm  -  mph - - 82f
11:36pm  -  mph - - 82f
11:30pm  -  mph - - 82f
11:24pm  -  mph - - 82f
11:18pm  -  mph - - 82f
11:12pm  -  mph - - 82f
11:06pm  -  mph - - 82f
11:00pm  -  mph - - 82f
10:54pm  -  mph - - 82f
10:48pm  -  mph - - 82f
10:42pm  -  mph - - 82f
10:36pm  -  mph - - 82f
10:30pm  -  mph - - 82f
10:24pm  -  mph - - 82f
10:18pm  -  mph - - 82f
10:12pm  -  mph - - 82f
10:06pm  -  mph - - 82f
10:00pm  -  mph - 86f 82f
9:54pm  -  mph - 86f 82f
9:48pm 6 9 mph 1014.7mb 86f 82f
9:42pm 6 8 mph 1014.7mb 86f 82f
9:36pm 6 8 mph 1014.7mb 86f 82f
9:30pm  -  mph - 86f 82f
9:24pm  -  mph - 86f 82f
9:18pm  -  mph - - 82f
9:12pm  -  mph - - 82f
9:06pm  -  mph - - 82f
9:00pm  -  mph - - 82f
8:54pm  -  mph - - 82f
8:48pm 8 11 mph 1014.5mb 86f 82f
8:42pm 7 11 mph 1014.6mb 86f 82f
8:36pm 9 14 mph 1014.5mb 86f 82f
8:30pm  -  mph 1014.5mb 86f 82f
8:24pm  -  mph 1014.5mb 86f 82f
8:18pm  -  mph 1014.5mb 86f 82f
8:12pm  -  mph 1014.5mb 86f 82f
8:06pm  -  mph 1014.5mb 86f 82f
8:00pm  -  mph - 86f 82f
7:54pm  -  mph - 86f 83f
7:48pm  -  mph - 86f 83f
7:42pm  -  mph - 86f 83f
7:36pm  -  mph - 86f 83f
7:30pm  -  mph - 86f 83f
7:24pm  -  mph - 86f 83f
7:18pm  -  mph - 86f 84f
7:12pm  -  mph - 86f 84f
7:06pm  -  mph - 86f 85f
7:00pm 8 10 mph 1014mb 86f 85f
6:54pm 8 10 mph 1013.8mb 86f 85f
6:48pm 10 11 mph 1013.7mb 87f 85f
6:42pm 10 11 mph 1013.7mb 87f 84f
6:36pm 9 10 mph 1013.6mb 86f 84f
6:30pm  -  mph - 86f 84f
6:24pm  -  mph - 86f 84f
6:18pm  -  mph - - 85f
6:12pm  -  mph - - 84f
6:06pm  -  mph - - 84f
6:00pm  -  mph - 86f 84f
5:54pm  -  mph - 86f 84f
5:48pm  -  mph - 86f 84f
5:42pm  -  mph - 86f 84f
5:36pm  -  mph - 86f 84f
5:30pm  -  mph - 86f 84f
5:24pm  -  mph - 86f 85f
5:18pm  -  mph - 86f 84f
5:12pm  -  mph - 86f 84f
5:06pm  -  mph - 86f 84f
5:00pm  -  mph 1013.7mb 86f 84f
4:54pm  -  mph 1013.7mb 86f 84f
4:48pm  -  mph 1013.7mb 86f 84f
4:42pm  -  mph 1013.7mb 86f 84f
4:36pm  -  mph 1013.8mb 87f 84f
4:30pm  -  mph 1013.8mb 87f 84f
4:24pm  -  mph 1013.8mb 87f 84f
4:18pm  -  mph - - 84f
4:12pm  -  mph - - 84f
4:06pm  -  mph - - 84f
4:00pm  -  mph - - 85f
3:54pm  -  mph - - 85f
3:48pm  -  mph - - 85f
3:42pm  -  mph - - 85f
3:36pm  -  mph - - 84f
3:30pm  -  mph - - 84f
3:24pm  -  mph - - 84f
3:18pm  -  mph - - 84f
3:12pm  -  mph - - 84f
3:06pm  -  mph - - 84f
3:00pm  -  mph - - 84f
2:54pm  -  mph - - 84f
2:48pm  -  mph - - 84f
2:42pm  -  mph - - 84f
2:36pm  -  mph - - 84f
2:30pm  -  mph - - 84f
2:24pm  -  mph - - 84f
2:18pm  -  mph - - 84f
2:12pm  -  mph - - 84f
2:06pm  -  mph - - 84f
2:00pm  -  mph - - 84f
1:54pm  -  mph - - 84f
1:48pm  -  mph - - 84f
1:42pm  -  mph - - 84f
1:36pm  -  mph - - 84f
1:30pm  -  mph - - 84f
1:24pm  -  mph - - 84f
1:18pm 8 9 mph 1015.7mb 86f 84f
1:12pm 8 10 mph 1015.7mb 86f 84f
1:06pm 10 11 mph 1015.7mb 86f 83f
1:00pm 9 11 mph 1015.7mb 86f 84f
12:54pm 9 11 mph 1015.8mb 86f 83f
12:48pm 11 13 mph 1015.8mb 86f 84f
11:54am 8 13 mph 1016.2mb 86f 83f
11:48am 5 8 mph 1016.3mb 86f 83f
11:42am 6 7 mph 1016.3mb 86f 83f
11:36am 3 6 mph 1016.4mb 86f 84f
11:30am 6 7 mph 1016.4mb 86f 83f
11:24am 6 9 mph 1016.4mb 86f 83f
11:18am 6 8 mph 1016.5mb 86f 83f
11:12am 6 8 mph 1016.5mb 86f 83f
11:06am 7 9 mph 1016.5mb 86f 83f
11:00am 6 9 mph 1016.6mb 86f 83f
10:54am 6 8 mph 1016.4mb 86f 83f
10:48am  -  mph 1016.4mb - -
10:42am 8 9 mph 1016.2mb 86f 83f
10:36am 7 10 mph 1016.2mb 86f 83f
10:30am 8 10 mph 1016.2mb 86f 83f
10:24am 8 10 mph 1016.2mb 86f 83f
10:18am 8 9 mph 1016.3mb 86f 82f
10:12am 8 10 mph 1016.3mb 86f 82f
10:06am 6 9 mph 1016.3mb 86f 82f
10:00am 8 10 mph 1016.2mb 86f 82f
9:54am 9 11 mph 1016.1mb 86f 82f
9:48am 10 14 mph 1016.1mb 86f 82f
9:36am 8 10 mph 1016mb 86f 82f
9:30am 9 11 mph 1015.9mb 86f 82f
9:24am 9 11 mph 1015.9mb 86f 82f
9:18am 7 9 mph 1015.7mb 86f 82f
9:12am 8 9 mph 1015.7mb 86f 82f
9:06am 7 9 mph 1015.6mb 86f 82f
9:00am 6 10 mph 1015.6mb 86f 82f
8:54am 7 10 mph 1015.5mb 86f 82f
8:48am 9 11 mph 1015.4mb 86f 82f
8:42am 8 11 mph 1015.4mb 86f 82f
8:36am 8 9 mph 1015.4mb 86f 82f
8:30am 7 8 mph 1015.3mb 86f 82f
8:24am 8 10 mph 1015.4mb 86f 81f
8:18am 8 9 mph 1015.3mb 86f 81f
8:12am 7 8 mph 1015.3mb 86f 81f
8:06am 6 8 mph 1015.3mb 86f 81f
8:00am 7 10 mph 1015.4mb 86f 81f
7:54am 7 8 mph 1015.3mb 86f 81f
7:48am 6 8 mph 1015.3mb 86f 81f
7:42am 6 8 mph 1015.3mb 86f 81f
7:36am 6 8 mph 1015.3mb 86f 81f
7:30am 6 8 mph 1015.2mb 86f 81f
7:24am 7 9 mph 1015.2mb 86f 80f
7:18am 7 9 mph 1015.1mb 86f 80f
7:12am 7 8 mph 1015mb 86f 80f
7:06am 6 7 mph 1015mb 86f 80f
7:00am 6 7 mph 1014.9mb 86f 79f
6:54am 5 6 mph 1014.9mb 86f 79f
6:48am 5 6 mph 1014.9mb 86f 79f
6:42am 5 6 mph 1014.8mb 86f 79f
6:36am 6
mph
1014.6mb 86f 79f
6:24am 6 7 mph 1014.4mb 86f 79f
6:18am 6 7 mph 1014.3mb 86f 79f
6:12am 5 6 mph 1014.3mb 86f 79f
6:06am 6 7 mph 1014.2mb 86f 79f
6:00am 6 7 mph 1014.3mb 86f 79f
5:54am 5 6 mph 1014.2mb 86f 80f
5:48am 5 7 mph 1014.1mb 86f 79f
5:42am 5 6 mph 1014.2mb 86f 79f
5:36am 6 7 mph 1014.1mb 86f 79f
5:30am 5 6 mph 1014.1mb 86f 79f
5:24am 6
mph
1014mb 86f 79f
5:18am 6
mph
1013.7mb 86f 79f
5:12am 6 7 mph 1013.8mb 86f 79f
5:06am 5 6 mph 1013.7mb 86f 79f
5:00am 5
mph
1013.7mb 86f 80f
4:54am 5 6 mph 1013.7mb 86f 80f
4:48am 5 6 mph 1013.8mb 86f 80f
4:42am 5 6 mph 1013.8mb 86f 80f
4:36am 5
mph
1013.8mb 86f 80f
4:30am 5 6 mph 1013.8mb 86f 79f
4:24am 3 5 mph 1013.8mb 86f 79f
4:18am 3 5 mph 1013.9mb 86f 79f
4:12am 3 5 mph 1013.9mb 86f 79f
4:06am 5
mph
1013.8mb 86f 79f
4:00am 6
mph
1014mb 86f 79f
3:54am 5 6 mph 1014mb 86f 79f
3:48am 5 6 mph 1014.1mb 86f 79f
3:42am 5 6 mph 1014.1mb 86f 80f
3:36am 5 6 mph 1014mb 86f 80f
3:30am 5 6 mph 1014.1mb 86f 80f
3:24am 6
mph
1014.1mb 86f 80f
3:18am 6 7 mph 1014.2mb 86f 80f
3:12am 5 6 mph 1014.2mb 86f 80f
3:06am 3
mph
1014.2mb 86f 81f
3:00am 6 7 mph 1014.3mb 86f 82f
2:54am 6 8 mph 1014.4mb 86f 82f
2:48am 7 8 mph - 86f 82f
2:42am 6 7 mph - 86f 82f
2:36am 6 7 mph - 86f 82f
2:30am 8 10 mph 1014.5mb 86f 82f
2:24am 8 9 mph 1014.5mb 86f 82f
2:18am 8 10 mph 1014.6mb 86f 82f
2:12am 8 10 mph 1014.6mb 86f 82f
2:06am 8
mph
1014.7mb 86f 82f
2:00am 7 8 mph 1014.8mb 86f 82f
1:54am 7 9 mph 1014.8mb 86f 82f
1:48am 7 9 mph 1014.7mb 86f 82f
1:42am 7 9 mph 1014.7mb 86f 82f
1:36am 7 10 mph 1014.8mb 86f 83f
1:30am 8 10 mph 1014.8mb 86f 82f
1:24am 8 11 mph 1014.9mb 86f 83f
1:18am 6 8 mph 1014.9mb 86f 82f
1:12am 5 7 mph 1014.9mb 86f 82f
1:06am 5 7 mph 1014.9mb 86f 82f
1:00am 5
mph
1014.9mb 86f 82f
12:54am 7 8 mph 1015mb 86f 82f
12:48am 6 8 mph 1015mb 86f 82f
12:42am 7 9 mph 1015.1mb 86f 82f
12:36am 6 8 mph 1015.1mb 86f 82f
12:30am 7 9 mph 1015.1mb 86f 83f
12:24am 8 9 mph 1015.3mb 86f 83f
12:18am 9 10 mph 1015.2mb 86f 83f
12:12am 10 11 mph 1015.3mb 86f 83f
12:06am 9 10 mph 1015.4mb 86f 82f
12:00am 5 7 mph 1015.4mb 86f 82f
Tue 07/28 11:54pm 5 7 mph 1015.5mb 86f 82f
11:48pm 7 10 mph 1015.4mb 86f 82f
11:42pm 9 10 mph 1015.5mb 86f 82f
11:36pm 11 13 mph 1015.5mb 86f 83f
11:30pm 10 13 mph 1015.5mb 86f 82f
11:24pm 9 11 mph 1015.4mb 86f 82f
11:18pm 9 11 mph 1015.3mb 86f 82f
11:12pm 8 10 mph 1015.3mb 86f 82f
11:06pm 9 11 mph 1015.5mb 86f 82f
11:00pm 7 9 mph 1015.6mb 86f 82f
10:54pm 7 9 mph 1015.5mb 86f 82f
10:48pm 8 9 mph 1015.5mb 86f 82f
10:42pm 7 9 mph 1015.3mb 86f 82f
10:36pm 9 10 mph 1015.3mb 86f 82f
10:30pm 8 11 mph 1015.3mb 86f 82f
10:24pm 7 10 mph 1015.3mb 86f 82f
10:18pm 11 14 mph 1015.2mb 86f 82f
10:12pm 9 13 mph 1015.1mb 86f 82f
10:06pm 8 13 mph 1015mb 86f 82f
10:00pm 13 14 mph 1015mb 86f 82f
9:54pm 11 14 mph 1015mb 86f 82f
9:48pm 10 14 mph 1015.1mb 86f 82f
9:42pm 10 13 mph 1015mb 86f 82f
9:36pm 11 14 mph 1015mb 86f 82f
9:30pm 11 13 mph 1014.9mb 86f 82f
9:24pm 9 13 mph 1014.8mb 86f 82f
9:18pm 10 13 mph 1014.8mb 86f 82f
9:12pm 11 14 mph 1014.7mb 86f 82f
9:06pm 14 15 mph 1014.7mb 86f 82f
9:00pm 14 16 mph 1014.8mb 86f 82f
8:54pm 14 16 mph 1014.8mb 86f 82f
8:48pm 14 16 mph 1014.7mb 86f 82f
8:42pm 13 16 mph 1014.7mb 86f 82f
8:36pm 15 17 mph 1014.6mb 86f 82f
8:30pm 15 17 mph 1014.6mb 86f 82f
8:24pm 13 16 mph 1014.8mb 86f 82f
8:18pm 14 15 mph 1014.8mb 86f 83f
8:12pm 15 17 mph 1014.8mb 86f 83f
8:06pm 14 15 mph 1014.8mb 86f 83f
8:00pm 13 15 mph 1014.9mb 86f 83f
7:54pm 15 17 mph 1014.8mb 86f 83f
7:48pm 14 17 mph 1014.8mb 86f 83f
7:42pm 14 16 mph 1014.7mb 86f 83f
7:36pm 10 14 mph 1014.6mb 86f 83f
7:30pm 11 13 mph 1014.5mb 86f 83f
7:24pm 13 14 mph 1014.5mb 86f 83f
7:18pm 14 15 mph 1014.5mb 86f 83f
7:12pm 13 14 mph 1014.4mb 86f 83f
7:06pm 14 16 mph 1014.3mb 86f 83f
7:00pm 14 16 mph 1014.4mb 86f 83f
6:54pm 14 16 mph 1014.4mb 86f 83f
6:48pm 15 17 mph 1014.4mb 86f 83f
6:42pm 15 16 mph 1014.4mb 86f 83f
6:36pm 14 16 mph 1014.4mb 86f 83f
6:30pm 14 15 mph 1014.3mb 86f 83f
6:24pm 15 17 mph 1014.3mb 86f 83f
6:18pm 15 17 mph 1014.2mb 86f 83f
6:12pm 15 17 mph 1014.2mb 86f 83f
6:06pm 15 16 mph 1014.3mb 86f 83f
6:00pm 15 17 mph 1014.4mb 86f 83f
5:54pm 16 18 mph 1014.4mb 86f 83f
5:48pm 16 17 mph 1014.4mb 86f 83f
5:42pm 14 16 mph 1014.5mb 86f 84f
5:36pm 16 18 mph 1014.5mb 86f 83f
5:30pm 15 16 mph 1014.5mb 86f 84f
5:24pm 16 18 mph 1014.5mb 86f 84f
5:18pm 16 18 mph 1014.5mb 86f 84f
5:12pm 16 18 mph 1014.4mb 86f 83f
5:06pm 16 17 mph 1014.4mb 86f 84f
5:00pm 15 17 mph 1014.3mb 86f 84f
4:54pm 15 17 mph 1014.3mb 86f 84f
4:48pm 16 18 mph 1014.3mb 86f 83f
4:42pm 15 18 mph 1014.4mb 86f 83f
4:36pm 15 16 mph 1014.4mb 86f 83f
4:30pm 15 17 mph 1014.4mb 86f 83f
4:24pm 15 16 mph 1014.5mb 86f 83f
4:18pm 15 17 mph 1014.5mb 86f 83f
4:12pm 15 17 mph 1014.6mb 86f 83f
4:06pm 15 17 mph 1014.6mb 86f 83f
4:00pm 14 16 mph 1014.6mb 86f 83f
3:54pm 15 16 mph 1014.6mb 86f 83f
3:48pm 14 16 mph 1014.6mb 86f -
3:42pm 15 16 mph 1014.7mb 86f 83f
3:36pm 14 16 mph 1014.8mb 86f 83f
3:30pm 14 16 mph 1014.8mb 86f 83f
3:24pm 16 18 mph 1014.9mb 86f 83f
3:18pm 15 16 mph 1014.9mb 86f 83f
3:12pm 16 17 mph 1015mb 86f 83f
3:06pm 14 16 mph 1015mb 86f 84f
3:00pm 15 16 mph 1015.1mb 86f 83f
2:54pm 16 18 mph 1015.2mb 86f 83f
2:48pm 15 17 mph 1015.2mb 86f -
2:42pm 16 18 mph 1015.2mb 86f 83f
2:36pm 14 17 mph 1015.3mb 86f 83f
2:30pm 15 18 mph 1015.4mb 86f 83f
2:24pm 15 20 mph 1015.4mb 86f 83f
2:18pm 15 17 mph - - -
2:12pm 15 17 mph 1015.7mb 86f 83f
2:06pm 15 17 mph 1015.8mb 86f 83f
2:00pm 15 21 mph 1015.8mb 86f 83f
1:54pm 16 20 mph 1015.8mb 86f 83f
1:48pm 17 18 mph 1015.8mb 86f 83f
1:42pm 16 20 mph 1015.9mb 86f 83f
1:36pm 16 18 mph 1015.9mb 86f 83f
1:30pm 17 20 mph 1015.9mb 86f 83f
1:24pm 16 20 mph 1015.9mb 86f 83f
1:18pm 17 20 mph 1015.8mb 86f 83f
1:12pm 17 21 mph 1015.9mb 86f 83f
1:06pm 17 20 mph 1015.9mb 86f 83f
1:00pm 14 16 mph 1015.9mb 86f 83f
12:54pm 15 17 mph 1016mb 86f 83f
12:48pm 15 17 mph 1016mb 86f 83f
12:42pm 13 14 mph 1016mb 86f 83f
12:36pm 11 14 mph 1016.1mb 86f 83f
12:30pm 13 14 mph 1016.1mb 86f 83f
12:24pm 13 15 mph 1016.1mb 86f 84f
12:18pm 10 11 mph 1016.1mb 86f 84f
12:12pm 11 13 mph 1016mb 86f 84f
12:06pm 9 11 mph 1016mb 86f 84f
12:00pm 9 11 mph 1016mb 86f 84f
11:54am 9 11 mph 1016mb 86f 84f
11:48am 7 8 mph 1016mb 86f 84f
11:42am 8 9 mph 1016mb 86f 83f
11:36am 7 9 mph 1015.9mb 86f 84f
11:30am 8 9 mph 1015.8mb 86f 84f
11:24am 7 9 mph 1015.8mb 85f 84f
11:18am 7 11 mph 1015.9mb 86f 83f
11:12am 8 10 mph 1015.8mb 85f 83f
11:06am 7 9 mph 1015.9mb 85f 83f
11:00am 8 10 mph 1015.8mb 85f 84f
10:54am 9 11 mph 1015.9mb 85f 84f
10:48am 8 10 mph 1015.9mb 85f 83f
10:42am 8 10 mph 1015.9mb 85f 83f
10:36am 7 9 mph 1015.9mb 85f 83f
10:30am 8 9 mph 1015.9mb 85f 83f
10:24am 9 10 mph 1015.9mb 85f 83f
10:18am 7 10 mph 1015.9mb 85f 83f
10:12am 8 10 mph 1015.9mb 85f 83f
10:06am 7 8 mph 1015.9mb 85f 83f
10:00am 7 9 mph 1015.9mb 85f 83f
9:54am 7 9 mph 1015.9mb 85f 82f
9:48am 7 9 mph 1015.8mb 85f 83f
9:42am 6 8 mph 1015.8mb 85f 83f
9:36am 6
mph
1015.8mb 85f 82f
9:30am 7 8 mph 1015.8mb 85f 82f
9:24am 8 9 mph 1015.8mb 85f 82f
9:18am 8 9 mph 1015.7mb 85f 82f
9:12am 6 8 mph 1015.7mb 85f 82f
9:06am 8 10 mph 1015.7mb 85f 81f
9:00am 6 7 mph 1015.7mb 85f 82f
8:54am 8 11 mph 1015.6mb 85f 81f
8:48am 7 9 mph 1015.7mb 85f 81f
8:42am 6 8 mph 1015.7mb 85f 81f
8:36am 9 11 mph 1015.7mb 85f 80f
8:30am 8 9 mph 1015.8mb 85f 81f
8:24am 8 10 mph 1015.8mb 85f 81f
8:18am 8 10 mph - - -
8:12am 8 9 mph 1015.7mb 85f 81f
8:06am 7 9 mph 1015.7mb 85f 81f
8:00am 7 9 mph 1015.6mb 85f 81f
7:54am 7 9 mph 1015.6mb 85f 81f
7:48am 8 10 mph 1015.5mb 85f 80f
7:42am 6 7 mph 1015.3mb 85f 80f
7:36am 5 7 mph 1015.1mb 85f 80f
7:30am 6 7 mph 1015.1mb 85f 80f
7:24am 5 6 mph 1015mb 85f 80f
7:18am 5 6 mph - - -
7:12am 6 7 mph 1015mb 85f 80f
7:06am 5 6 mph 1014.8mb 85f 80f
7:00am 5 6 mph 1014.8mb 85f 80f
6:54am 5 6 mph 1014.7mb 85f 80f
6:48am 3 6 mph - - -
6:42am 5
mph
1014.5mb 85f 80f
6:36am 3 5 mph 1014.4mb 85f 80f
6:30am 5 6 mph 1014.3mb 85f 80f
6:24am 5 6 mph 1014.2mb 85f 80f
6:18am 5
mph
- - -
6:12am 3 5 mph 1014.1mb 85f 80f
6:06am 5 6 mph 1014.1mb 85f 80f
6:00am 5 6 mph 1014.1mb 85f 80f
5:54am 5 6 mph 1014mb 85f 80f
5:48am 2
mph
1013.9mb - -
5:42am 3 5 mph 1013.8mb 85f 80f
5:36am 5 6 mph 1013.8mb 85f 80f
5:30am 3 5 mph 1013.9mb 85f -
5:24am 5 6 mph 1013.8mb 85f -
5:18am 3 5 mph 1013.8mb 85f -
5:12am  -  mph - - 79f
5:06am  -  mph - - 80f
5:00am 5
mph
1014mb 85f 80f
4:54am 3 6 mph 1013.9mb 85f 80f
4:48am 5
mph
1013.9mb 85f 80f
4:42am 3
mph
1013.9mb 85f 80f
4:36am 3 5 mph 1013.8mb 85f 80f
4:30am 5 6 mph 1013.8mb 85f 80f
4:24am 3
mph
1013.9mb 85f 80f
4:18am 2 3 mph - - -
4:12am 3 5 mph 1014.1mb 85f 80f
4:06am 3 6 mph 1014mb 85f 80f
4:00am 5 6 mph 1014.1mb 85f 80f
3:54am 5
mph
1014.1mb 85f 80f
3:48am 3 5 mph 1014.1mb 85f 80f
3:42am 5
mph
1014.2mb 85f 80f
3:36am 3
mph
1014.3mb 85f 81f
3:30am 3
mph
1014.4mb 85f 81f
3:24am 2
mph
1014.4mb 85f 81f
3:18am  -  1 mph - - -
3:12am  -  mph 1014.5mb 85f 80f
3:06am  -  mph 1014.5mb 85f 80f
3:00am 2
mph
1014.6mb 85f 80f
2:54am 2
mph
1014.6mb 85f 80f
2:48am 2 3 mph 1014.7mb 85f 81f
2:42am 2 3 mph 1014.7mb 85f 81f
2:36am 3
mph
1014.8mb 85f 81f
2:30am 3
mph
1014.8mb 85f 81f
2:24am 3 5 mph 1014.8mb 85f 81f
2:18am 3 5 mph - - -
2:12am 3 5 mph 1014.8mb 85f 81f
2:06am 2 3 mph 1014.7mb 85f 81f
2:00am 2
mph
1014.7mb 85f 81f
1:54am 2 3 mph 1014.8mb 85f 81f
1:48am 3 5 mph 1014.8mb 85f 81f
1:42am 3 5 mph 1014.8mb 85f 81f
1:36am 3 5 mph 1014.8mb 85f 81f
1:30am 2 3 mph 1014.8mb 85f 81f
1:24am 2 3 mph 1014.8mb 85f 81f
1:18am 3 5 mph - - -
1:12am 2 3 mph 1014.8mb 85f 81f
1:06am 3
mph
1014.8mb 85f 82f
1:00am 3 5 mph 1014.9mb 85f 82f
12:54am 3 5 mph 1014.9mb 85f 82f
12:48am 3 5 mph 1014.9mb 85f 82f
12:42am 3 5 mph 1014.9mb 85f 82f
12:36am 7 8 mph 1014.8mb 85f 83f
12:30am 6
mph
1014.8mb 85f 82f
12:24am 5
mph
1014.8mb 85f 82f
12:18am 6 7 mph 1014.9mb - -
12:12am 5 6 mph 1014.9mb 85f 82f
12:06am 5 6 mph 1014.8mb 85f 82f
12:00am 5 6 mph 1014.8mb 85f 82f
Mon 07/27 11:54pm 5 6 mph 1014.9mb 86f 82f
11:48pm 5 6 mph 1014.9mb 86f 82f
11:42pm 5 6 mph 1014.8mb 86f 83f
11:36pm 5 6 mph 1014.8mb 86f 83f
11:30pm 6 7 mph 1014.7mb 86f 83f
11:24pm 6 7 mph 1014.8mb 85f 83f
11:18pm 6 7 mph 1014.8mb - -
11:12pm 6 7 mph 1014.7mb 85f 83f
11:06pm 7 8 mph 1014.7mb 85f 83f
11:00pm 7 8 mph 1014.7mb 85f 83f
10:54pm 8
mph
1014.8mb 85f 83f
10:48pm 5 7 mph 1014.7mb 85f 82f
10:42pm 6 8 mph 1014.8mb 85f 82f
10:36pm 5 6 mph 1014.8mb 85f 82f
10:30pm 3 6 mph 1014.8mb 85f 82f
10:24pm 5 6 mph 1014.6mb 85f 82f
10:18pm 6 7 mph 1014.5mb - -
10:12pm 5 6 mph 1014.5mb 85f 82f
10:06pm 5 7 mph 1014.5mb 85f 82f
10:00pm 5 6 mph 1014.5mb 85f 82f
9:54pm 5 6 mph 1014.4mb 85f 82f
9:48pm 5 6 mph 1014.4mb 85f 82f